Time;durP1;ratioP1;P1;durP2;ratioP2;P2;SDS_P1;SDS_P2;PMS_P1;PMS_P2;Temp;Humidity;BMP_temperature;BMP_pressure;BME280_temperature;BME280_humidity;BME280_pressure;Samples;Min_cycle;Max_cycle;Signal;HPM_P1;HPM_P2
2023/09/19 00:02:08;;;;;;;5.85;2.40;;;;;;;18.74;73.30;100480.44;7392681;19;20018;-54
2023/09/19 00:04:39;;;;;;;7.40;2.80;;;;;;;18.72;73.54;100490.50;7394145;19;20018;-54
2023/09/19 00:07:08;;;;;;;5.82;2.55;;;;;;;18.75;73.38;100482.09;7394792;19;20475;-56
2023/09/19 00:09:39;;;;;;;7.85;2.55;;;;;;;18.76;73.10;100485.63;7391948;19;20026;-56
2023/09/19 00:12:09;;;;;;;6.32;2.30;;;;;;;18.71;73.68;100493.34;7393610;19;20014;-56
2023/09/19 00:14:36;;;;;;;7.57;2.53;;;;;;;18.69;73.59;100503.38;7392480;19;20082;-57
2023/09/19 00:17:08;;;;;;;6.78;2.53;;;;;;;18.68;73.43;100502.53;7393689;19;20022;-56
2023/09/19 00:19:36;;;;;;;7.63;2.58;;;;;;;18.74;73.38;100507.28;7391249;19;20022;-56
2023/09/19 00:22:04;;;;;;;8.70;2.85;;;;;;;18.75;73.39;100503.56;7393616;19;20036;-58
2023/09/19 00:24:31;;;;;;;8.63;2.70;;;;;;;18.74;73.72;100507.28;7392201;19;20066;-57
2023/09/19 00:26:59;;;;;;;8.52;2.80;;;;;;;18.75;73.42;100511.63;7393736;19;20025;-56
2023/09/19 00:29:31;;;;;;;4.60;2.67;;;;;;;18.79;73.54;100504.06;7391211;19;20022;-58
2023/09/19 00:31:59;;;;;;;5.55;2.40;;;;;;;18.78;73.57;100514.97;7391290;19;20018;-56
2023/09/19 00:34:27;;;;;;;6.90;2.78;;;;;;;18.74;73.60;100509.94;7391802;19;20015;-59
2023/09/19 00:36:55;;;;;;;6.80;2.63;;;;;;;18.79;73.93;100516.63;7393882;19;20026;-57
2023/09/19 00:39:25;;;;;;;6.15;2.10;;;;;;;18.73;73.55;100521.69;7391320;19;20093;-55
2023/09/19 00:41:52;;;;;;;5.97;2.33;;;;;;;18.72;73.83;100532.59;7392735;19;20014;-57
2023/09/19 00:44:22;;;;;;;7.97;2.63;;;;;;;18.70;73.63;100524.72;7392443;19;20010;-57
2023/09/19 00:46:52;;;;;;;5.47;1.95;;;;;;;18.70;73.84;100538.13;7392717;19;20018;-57
2023/09/19 00:49:22;;;;;;;9.20;2.30;;;;;;;18.63;73.84;100529.06;7390530;19;20018;-57
2023/09/19 00:51:50;;;;;;;8.05;2.33;;;;;;;18.61;73.47;100530.22;7392633;19;20018;-58
2023/09/19 00:54:18;;;;;;;6.30;2.42;;;;;;;18.58;73.86;100525.19;7389721;19;20014;-58
2023/09/19 00:56:46;;;;;;;7.10;2.33;;;;;;;18.64;73.35;100532.56;7392629;19;20025;-57
2023/09/19 00:59:13;;;;;;;8.10;2.30;;;;;;;18.62;73.63;100538.13;7390834;19;20028;-57
2023/09/19 01:01:41;;;;;;;6.10;2.30;;;;;;;18.65;73.20;100531.56;7391936;19;20489;-58
2023/09/19 01:04:09;;;;;;;4.78;1.98;;;;;;;18.64;72.83;100536.09;7392078;19;20032;-57
2023/09/19 01:06:39;;;;;;;9.70;1.90;;;;;;;18.64;72.50;100546.81;7391433;19;20031;-58
2023/09/19 01:09:08;;;;;;;8.90;1.92;;;;;;;18.67;72.00;100546.47;7390361;19;20506;-58
2023/09/19 01:11:45;;;;;;;7.10;2.10;;;;;;;18.74;71.64;100552.88;7392123;19;20014;-57
2023/09/19 01:14:28;;;;;;;7.03;2.03;;;;;;;18.69;71.65;100559.72;7388741;19;20022;-57
2023/09/19 01:16:55;;;;;;;6.15;1.83;;;;;;;18.65;71.70;100567.25;7392330;19;20025;-57
2023/09/19 01:19:26;;;;;;;5.80;2.00;;;;;;;18.67;71.61;100551.00;7390030;19;20031;-58
2023/09/19 01:22:19;;;;;;;6.18;2.05;;;;;;;18.63;71.48;100557.72;7390118;19;20088;-56
2023/09/19 01:25:18;;;;;;;6.55;2.13;;;;;;;18.60;72.04;100566.13;7391425;19;20042;-57
2023/09/19 01:28:13;;;;;;;5.05;1.83;;;;;;;18.54;72.12;100574.81;7390699;19;20098;-56
2023/09/19 01:30:44;;;;;;;7.82;2.20;;;;;;;18.47;72.41;100574.69;7391975;19;20479;-57
2023/09/19 01:33:11;;;;;;;5.55;1.88;;;;;;;18.40;72.30;100577.19;7390521;19;20018;-58
2023/09/19 01:35:39;;;;;;;5.32;1.70;;;;;;;18.35;72.54;100584.88;7391911;19;20015;-58
2023/09/19 01:38:09;;;;;;;6.22;1.83;;;;;;;18.35;72.24;100581.38;7390206;19;20081;-58
2023/09/19 01:40:43;;;;;;;6.78;1.70;;;;;;;18.31;72.02;100586.22;7391493;19;20014;-58
2023/09/19 01:43:26;;;;;;;6.35;1.77;;;;;;;18.19;71.43;100592.94;7389991;19;20018;-60
2023/09/19 01:46:06;;;;;;;3.60;1.25;;;;;;;17.99;71.09;100600.44;7391144;19;20019;-58
2023/09/19 01:48:58;;;;;;;3.80;1.33;;;;;;;18.01;70.46;100607.34;7389801;19;20018;-57
2023/09/19 01:51:46;;;;;;;3.53;1.10;;;;;;;18.02;69.75;100605.50;7391257;19;20018;-56
2023/09/19 01:54:23;;;;;;;3.83;1.17;;;;;;;17.98;70.30;100606.81;7389802;19;20031;-56
2023/09/19 01:57:03;;;;;;;4.38;1.20;;;;;;;17.87;70.10;100612.50;7391648;19;20018;-55
2023/09/19 01:59:41;;;;;;;3.47;1.02;;;;;;;17.91;69.83;100608.47;7388684;19;20033;-55
2023/09/19 02:02:08;;;;;;;3.58;1.20;;;;;;;17.91;69.49;100621.88;7390353;19;20010;-54
2023/09/19 02:04:36;;;;;;;5.10;1.20;;;;;;;17.88;68.95;100615.00;7390526;19;20018;-56
2023/09/19 02:07:05;;;;;;;3.30;1.17;;;;;;;17.77;68.60;100626.00;7390674;19;20025;-54
2023/09/19 02:09:35;;;;;;;4.13;1.20;;;;;;;17.80;68.40;100623.00;7388221;19;20014;-53
2023/09/19 02:12:03;;;;;;;3.40;1.05;;;;;;;17.84;68.10;100627.03;7390222;19;20528;-57
2023/09/19 02:14:31;;;;;;;2.50;1.02;;;;;;;17.74;67.86;100616.44;7388467;19;20487;-57
2023/09/19 02:16:59;;;;;;;2.67;1.52;;;;;;;17.80;67.59;100622.19;7388814;19;20030;-57
2023/09/19 02:19:27;;;;;;;4.70;1.20;;;;;;;17.82;67.33;100623.69;7392849;19;20018;-56
2023/09/19 02:21:55;;;;;;;4.75;1.40;;;;;;;17.64;67.33;100618.41;7395950;19;20367;-58
2023/09/19 02:24:26;;;;;;;6.00;1.48;;;;;;;17.63;67.70;100622.09;7398121;19;20038;-54
2023/09/19 02:26:54;;;;;;;3.78;1.10;;;;;;;17.57;67.67;100621.91;7397309;19;20022;-57
2023/09/19 02:29:22;;;;;;;3.53;1.05;;;;;;;17.52;67.97;100627.75;7392579;19;20021;-58
2023/09/19 02:31:49;;;;;;;4.80;1.20;;;;;;;17.53;67.67;100630.25;7396971;19;20506;-58
2023/09/19 02:34:17;;;;;;;4.88;1.30;;;;;;;17.59;68.29;100630.59;7395378;19;20026;-57
2023/09/19 02:36:45;;;;;;;4.10;1.40;;;;;;;17.59;67.35;100639.50;7396845;19;20074;-56
2023/09/19 02:39:13;;;;;;;4.95;1.30;;;;;;;17.49;68.15;100633.41;7394581;19;20023;-58
2023/09/19 02:41:41;;;;;;;7.50;1.38;;;;;;;17.49;67.94;100634.25;7396577;19;20021;-58
2023/09/19 02:44:09;;;;;;;5.35;1.48;;;;;;;17.51;67.64;100636.75;7396622;19;20011;-59
2023/09/19 02:46:36;;;;;;;6.10;1.50;;;;;;;17.46;68.04;100641.78;7396987;19;20022;-58
2023/09/19 02:49:07;;;;;;;5.28;1.67;;;;;;;17.42;68.09;100638.56;7394492;19;20384;-58
2023/09/19 02:51:34;;;;;;;4.13;1.45;;;;;;;17.35;68.34;100642.88;7396942;19;20018;-58
2023/09/19 02:54:04;;;;;;;7.50;1.40;;;;;;;17.23;68.82;100652.19;7395167;19;20030;-57
2023/09/19 02:56:32;;;;;;;5.68;1.38;;;;;;;17.23;68.90;100653.03;7395147;19;20025;-58
2023/09/19 02:59:00;;;;;;;5.30;1.67;;;;;;;17.27;68.57;100648.19;7394466;19;20482;-57
2023/09/19 03:01:28;;;;;;;7.50;1.65;;;;;;;17.20;68.95;100649.84;7397016;19;20019;-58
2023/09/19 03:03:55;;;;;;;6.70;1.60;;;;;;;17.10;69.10;100657.16;7397294;19;20034;-58
2023/09/19 03:06:23;;;;;;;4.20;1.23;;;;;;;17.18;69.15;100647.31;7394631;19;20015;-57
2023/09/19 03:08:51;;;;;;;6.93;1.80;;;;;;;17.18;69.21;100644.66;7394073;19;20043;-56
2023/09/19 03:11:22;;;;;;;7.97;1.90;;;;;;;17.11;69.40;100637.41;7396363;19;20026;-55
2023/09/19 03:13:54;;;;;;;5.53;2.00;;;;;;;17.21;69.30;100644.34;7395369;19;20011;-55
2023/09/19 03:16:21;;;;;;;5.32;2.00;;;;;;;17.22;68.85;100650.53;7395693;19;20018;-57
2023/09/19 03:18:49;;;;;;;8.23;1.80;;;;;;;17.11;69.19;100656.97;7393529;19;20082;-58
2023/09/19 03:21:19;;;;;;;9.13;1.90;;;;;;;17.00;69.86;100674.13;7395781;19;20021;-56
2023/09/19 03:23:46;;;;;;;5.70;1.80;;;;;;;17.01;70.17;100659.75;7395150;19;20019;-63
2023/09/19 03:26:15;;;;;;;6.95;1.60;;;;;;;17.10;69.87;100666.00;7395965;19;20019;-65
2023/09/19 03:28:45;;;;;;;6.57;1.80;;;;;;;16.99;70.01;100669.78;7393758;19;20039;-65
2023/09/19 03:31:13;;;;;;;6.70;1.80;;;;;;;17.00;70.35;100670.63;7395474;19;20026;-63
2023/09/19 03:33:42;;;;;;;7.45;1.73;;;;;;;17.02;70.17;100680.19;7394793;19;20026;-65
2023/09/19 03:36:09;;;;;;;6.05;1.70;;;;;;;16.98;70.38;100688.66;7395826;19;20014;-64
2023/09/19 03:38:37;;;;;;;6.45;1.65;;;;;;;16.96;70.40;100683.47;7391476;19;20374;-59
2023/09/19 03:41:04;;;;;;;8.40;2.00;;;;;;;16.96;70.55;100674.59;7392506;19;20024;-64
2023/09/19 03:43:32;;;;;;;6.45;1.60;;;;;;;17.00;70.45;100668.78;7395530;19;20038;-63
2023/09/19 03:46:07;;;;;;;8.75;1.85;;;;;;;17.04;70.12;100675.50;7394546;19;20022;-63
2023/09/19 03:48:35;;;;;;;9.07;2.22;;;;;;;16.92;70.50;100683.94;7392416;19;20019;-63
2023/09/19 03:51:02;;;;;;;6.15;1.65;;;;;;;16.87;70.89;100678.22;7394636;19;20116;-60
2023/09/19 03:53:30;;;;;;;6.32;1.70;;;;;;;16.88;70.57;100679.91;7393788;19;20029;-65
2023/09/19 03:55:58;;;;;;;11.55;2.00;;;;;;;16.90;70.40;100677.91;7394062;19;20014;-65
2023/09/19 03:58:25;;;;;;;5.50;1.85;;;;;;;16.92;70.36;100679.44;7392080;19;20014;-65
2023/09/19 04:00:58;;;;;;;6.90;1.75;;;;;;;16.94;70.08;100693.50;7392463;19;20025;-66
2023/09/19 04:03:34;;;;;;;6.47;2.00;;;;;;;16.91;70.21;100687.63;7392529;19;20019;-65
2023/09/19 04:06:02;;;;;;;8.13;2.00;;;;;;;16.84;70.38;100683.88;7393548;19;20018;-62
2023/09/19 04:08:30;;;;;;;8.18;2.13;;;;;;;16.90;70.21;100692.09;7392511;19;20033;-62
2023/09/19 04:10:57;;;;;;;10.75;2.00;;;;;;;16.88;69.86;100694.09;7393591;19;20073;-62
2023/09/19 04:13:26;;;;;;;6.10;1.85;;;;;;;16.88;69.44;100698.63;7392963;19;20102;-62
2023/09/19 04:15:53;;;;;;;10.10;1.92;;;;;;;16.84;69.50;100703.44;7392787;19;20031;-64
2023/09/19 04:20:34;;;;;;;8.15;2.00;;;;;;;16.71;69.72;100694.94;7425599;19;20676;-67
2023/09/19 04:23:02;;;;;;;8.63;2.13;;;;;;;16.67;69.65;100690.88;7427738;19;20022;-69
2023/09/19 04:25:30;;;;;;;9.13;1.95;;;;;;;16.77;69.32;100683.66;7427823;19;20025;-66
2023/09/19 04:27:58;;;;;;;9.82;2.08;;;;;;;16.72;69.17;100692.13;7425714;19;20022;-65
2023/09/19 04:30:25;;;;;;;10.68;2.28;;;;;;;16.70;68.99;100686.06;7427103;19;20042;-65
2023/09/19 04:32:53;;;;;;;9.95;2.53;;;;;;;16.79;68.54;100690.53;7427661;19;20029;-65
2023/09/19 04:35:21;;;;;;;10.35;2.30;;;;;;;16.78;68.70;100694.19;7425812;19;20014;-65
2023/09/19 04:37:50;;;;;;;7.50;1.80;;;;;;;16.84;68.70;100682.03;7426026;19;20538;-63
2023/09/19 04:40:19;;;;;;;9.52;2.05;;;;;;;16.76;68.64;100688.16;7424118;19;20014;-64
2023/09/19 04:42:59;;;;;;;10.85;2.22;;;;;;;16.77;68.60;100684.50;7425502;19;20321;-64
2023/09/19 04:45:28;;;;;;;8.00;1.92;;;;;;;16.79;68.78;100697.72;7427299;19;20380;-64
2023/09/19 04:47:56;;;;;;;7.97;1.98;;;;;;;16.77;68.67;100703.22;7426035;19;20363;-64
2023/09/19 04:50:26;;;;;;;10.30;2.05;;;;;;;16.76;69.04;100701.53;7427069;19;20077;-64
2023/09/19 04:52:54;;;;;;;11.10;2.35;;;;;;;16.74;69.39;100700.84;7425821;19;20025;-64
2023/09/19 04:55:21;;;;;;;10.05;2.20;;;;;;;16.53;70.20;100711.00;7427985;19;20518;-65
2023/09/19 04:57:50;;;;;;;12.40;2.30;;;;;;;16.54;70.25;100710.00;7424594;19;20510;-65
2023/09/19 05:00:24;;;;;;;10.57;2.53;;;;;;;16.57;70.06;100712.38;7425170;19;20042;-65
2023/09/19 05:02:55;;;;;;;7.35;2.10;;;;;;;16.62;70.14;100711.91;7427170;19;20019;-64
2023/09/19 05:05:23;;;;;;;8.15;2.25;;;;;;;16.59;70.03;100731.75;7427259;19;20355;-66
2023/09/19 05:07:53;;;;;;;8.90;2.45;;;;;;;16.59;69.87;100718.38;7424184;19;20089;-66
2023/09/19 05:10:21;;;;;;;11.35;2.25;;;;;;;16.67;69.65;100726.47;7426456;19;20018;-65
2023/09/19 05:12:52;;;;;;;10.98;2.60;;;;;;;16.74;69.34;100732.09;7426330;19;20082;-66
2023/09/19 05:15:20;;;;;;;9.52;2.45;;;;;;;16.72;69.57;100739.41;7425996;19;20523;-66
2023/09/19 05:17:50;;;;;;;10.38;2.42;;;;;;;16.72;69.56;100732.22;7424686;19;20090;-66
2023/09/19 05:20:29;;;;;;;13.57;3.30;;;;;;;16.76;69.44;100735.47;7424250;19;20010;-64
2023/09/19 05:23:02;;;;;;;10.32;2.40;;;;;;;16.77;69.65;100737.97;7425855;19;20045;-65
2023/09/19 05:25:32;;;;;;;8.80;2.50;;;;;;;16.83;69.09;100736.53;7425652;19;20022;-63
2023/09/19 05:28:03;;;;;;;10.23;2.40;;;;;;;16.77;69.52;100724.59;7424299;19;20038;-64
2023/09/19 05:30:32;;;;;;;11.32;2.53;;;;;;;16.73;69.92;100720.56;7413160;19;20034;-64
2023/09/19 05:32:59;;;;;;;14.70;2.40;;;;;;;16.76;69.58;100722.94;7397794;19;20583;-62
2023/09/19 05:35:27;;;;;;;13.27;2.65;;;;;;;16.83;69.52;100724.97;7400985;19;20018;-62
2023/09/19 05:37:55;;;;;;;10.80;2.83;;;;;;;16.78;69.87;100745.00;7394568;19;20025;-63
2023/09/19 05:40:24;;;;;;;8.93;2.45;;;;;;;16.84;69.82;100756.94;7394158;19;20034;-64
2023/09/19 05:42:52;;;;;;;7.28;2.50;;;;;;;16.88;69.86;100744.09;7394707;19;20358;-63
2023/09/19 05:45:22;;;;;;;8.48;3.05;;;;;;;16.85;69.65;100739.06;7396746;19;20018;-64
2023/09/19 05:47:51;;;;;;;13.35;2.95;;;;;;;16.82;69.88;100742.88;7395648;19;20014;-65
2023/09/19 05:50:19;;;;;;;10.65;2.60;;;;;;;16.84;69.80;100740.06;7396394;19;20011;-65
2023/09/19 05:52:53;;;;;;;10.52;2.75;;;;;;;16.86;69.64;100736.22;7396366;19;20030;-65
2023/09/19 05:55:24;;;;;;;10.05;2.42;;;;;;;16.94;69.40;100749.69;7395653;19;20038;-64
2023/09/19 05:57:53;;;;;;;11.52;2.50;;;;;;;16.96;69.30;100744.16;7394933;19;20018;-65
2023/09/19 06:00:22;;;;;;;11.52;2.55;;;;;;;16.94;69.53;100744.34;7394459;19;20023;-65
2023/09/19 06:02:54;;;;;;;9.25;2.25;;;;;;;16.98;69.44;100751.06;7393578;19;20046;-65
2023/09/19 06:05:22;;;;;;;10.40;2.47;;;;;;;16.99;69.31;100762.59;7398733;19;20037;-66
2023/09/19 06:07:52;;;;;;;14.85;3.10;;;;;;;16.98;69.32;100767.09;7394415;19;20018;-66
2023/09/19 06:10:23;;;;;;;9.85;2.95;;;;;;;16.94;69.60;100771.09;7395633;19;20031;-66
2023/09/19 06:12:51;;;;;;;14.32;2.50;;;;;;;16.96;69.55;100774.44;7395524;19;20011;-66
2023/09/19 06:15:18;;;;;;;12.30;2.45;;;;;;;17.10;69.33;100770.38;7396157;19;20077;-66
2023/09/19 06:17:48;;;;;;;9.32;2.30;;;;;;;17.16;68.88;100769.72;7394742;19;20023;-65
2023/09/19 06:20:17;;;;;;;8.50;2.75;;;;;;;17.08;69.16;100776.88;7393887;19;20022;-65
2023/09/19 06:22:45;;;;;;;11.18;2.42;;;;;;;17.15;68.83;100765.38;7395073;19;20414;-65
2023/09/19 06:25:20;;;;;;;11.57;2.97;;;;;;;17.21;68.47;100764.78;7394988;19;20021;-65
2023/09/19 06:27:53;;;;;;;9.38;2.83;;;;;;;17.23;68.52;100767.28;7393986;19;20046;-65
2023/09/19 06:30:23;;;;;;;10.77;2.75;;;;;;;17.17;68.33;100768.75;7395171;19;20035;-65
2023/09/19 06:32:58;;;;;;;9.98;2.65;;;;;;;17.21;68.19;100767.44;7394767;19;20110;-65
2023/09/19 06:35:29;;;;;;;7.65;2.28;;;;;;;17.17;68.60;100774.13;7395110;19;20015;-65
2023/09/19 06:37:57;;;;;;;11.70;2.75;;;;;;;17.07;68.34;100768.00;7394117;19;20020;-65
2023/09/19 06:40:27;;;;;;;11.13;2.80;;;;;;;17.09;68.05;100776.69;7393452;19;20018;-65
2023/09/19 06:42:56;;;;;;;12.52;2.88;;;;;;;17.08;68.08;100774.19;7392426;19;20090;-65
2023/09/19 06:45:26;;;;;;;11.63;2.88;;;;;;;17.18;67.45;100781.13;7394854;19;20038;-65
2023/09/19 07:04:22;;;;;;;11.02;2.72;;;;;;;17.01;67.28;100814.94;7401487;19;20333;-64
2023/09/19 07:06:50;;;;;;;12.98;2.80;;;;;;;17.18;66.65;100828.47;7427213;19;20014;-64
2023/09/19 07:09:19;;;;;;;13.85;3.13;;;;;;;17.22;66.71;100822.66;7425091;19;20019;-64
2023/09/19 07:11:48;;;;;;;11.05;2.35;;;;;;;17.21;66.37;100820.16;7428014;19;20026;-64
2023/09/19 07:14:15;;;;;;;10.70;2.63;;;;;;;17.33;65.96;100816.22;7427302;19;20039;-64
2023/09/19 07:16:44;;;;;;;12.93;3.13;;;;;;;17.40;65.70;100828.00;7427540;19;20356;-64
2023/09/19 07:19:12;;;;;;;12.57;2.90;;;;;;;17.41;65.94;100826.16;7424540;19;20077;-64
2023/09/19 07:21:39;;;;;;;11.25;2.55;;;;;;;17.53;65.84;100824.91;7426801;19;20034;-64
2023/09/19 07:24:08;;;;;;;9.05;2.30;;;;;;;17.57;65.33;100830.78;7424502;19;20018;-64
2023/09/19 07:26:35;;;;;;;8.88;2.28;;;;;;;17.57;65.17;100828.09;7427364;19;20491;-64
2023/09/19 07:29:03;;;;;;;13.23;2.85;;;;;;;17.60;65.02;100833.16;7424379;19;20039;-64
2023/09/19 07:31:31;;;;;;;10.40;2.15;;;;;;;17.64;64.59;100824.66;7427310;19;20035;-64
2023/09/19 07:33:58;;;;;;;9.75;2.17;;;;;;;17.67;64.63;100832.38;7427235;19;20047;-64
2023/09/19 07:36:26;;;;;;;12.70;2.63;;;;;;;17.72;64.38;100823.84;7425619;19;20018;-64
2023/09/19 07:38:54;;;;;;;10.65;2.60;;;;;;;17.71;64.28;100839.09;7422594;19;20543;-64
2023/09/19 07:41:34;;;;;;;9.82;2.38;;;;;;;17.73;64.14;100825.53;7426778;19;20018;-64
2023/09/19 07:44:01;;;;;;;9.95;2.50;;;;;;;17.84;64.19;100819.09;7424378;19;20345;-64
2023/09/19 07:46:31;;;;;;;12.38;2.50;;;;;;;17.95;63.43;100825.03;7426899;19;20024;-64
2023/09/19 07:48:58;;;;;;;10.02;2.50;;;;;;;18.03;63.40;100830.44;7424693;19;20531;-64
2023/09/19 07:51:26;;;;;;;10.63;2.47;;;;;;;18.04;63.25;100817.84;7425261;19;20018;-64
2023/09/19 07:53:54;;;;;;;10.23;2.50;;;;;;;18.01;63.20;100824.41;7425161;19;20010;-64
2023/09/19 07:56:22;;;;;;;8.95;2.53;;;;;;;18.06;63.11;100829.28;7426401;19;20081;-64
2023/09/19 07:58:50;;;;;;;9.68;2.83;;;;;;;18.06;62.87;100833.78;7423995;19;20042;-64
2023/09/19 08:01:17;;;;;;;9.68;2.47;;;;;;;18.10;63.07;100827.94;7425990;19;20025;-64
2023/09/19 08:03:45;;;;;;;10.88;3.20;;;;;;;18.18;62.30;100843.22;7422520;19;20047;-64
2023/09/19 08:06:13;;;;;;;12.43;2.75;;;;;;;18.18;62.39;100837.88;7423637;19;20014;-64
2023/09/19 08:08:41;;;;;;;13.25;2.55;;;;;;;18.23;62.01;100828.34;7424171;19;20025;-64
2023/09/19 08:11:12;;;;;;;13.52;2.65;;;;;;;18.31;61.48;100850.81;7426207;19;20652;-65
2023/09/19 08:13:48;;;;;;;8.93;2.17;;;;;;;18.32;61.28;100839.94;7422900;19;20050;-65
2023/09/19 08:16:17;;;;;;;8.43;1.92;;;;;;;18.33;60.86;100832.75;7396927;19;20416;-66
2023/09/19 08:18:54;;;;;;;11.10;2.30;;;;;;;18.51;60.63;100841.53;7394041;19;20029;-65
2023/09/19 08:21:23;;;;;;;11.25;2.53;;;;;;;18.61;60.60;100836.84;7397072;19;20021;-65
2023/09/19 08:23:52;;;;;;;11.73;2.33;;;;;;;18.65;60.56;100840.03;7395589;19;20017;-65
2023/09/19 08:26:20;;;;;;;10.77;2.15;;;;;;;18.62;60.13;100830.50;7396971;19;20019;-65
2023/09/19 08:28:47;;;;;;;11.88;2.28;;;;;;;18.64;59.49;100838.38;7394858;19;20069;-65
2023/09/19 08:31:16;;;;;;;9.35;2.05;;;;;;;18.68;60.01;100829.00;7396824;19;20014;-65
2023/09/19 08:33:48;;;;;;;8.20;2.28;;;;;;;18.63;59.97;100834.03;7396314;19;20021;-65
2023/09/19 08:36:16;;;;;;;9.18;2.33;;;;;;;18.57;59.79;100832.81;7395396;19;20022;-65
2023/09/19 08:38:44;;;;;;;10.15;2.15;;;;;;;18.67;59.87;100838.88;7394938;19;20018;-65
2023/09/19 08:41:12;;;;;;;15.05;2.45;;;;;;;18.62;59.82;100857.34;7395026;19;20426;-65
2023/09/19 08:43:39;;;;;;;10.07;2.22;;;;;;;18.62;59.42;100843.91;7395147;19;20018;-65
2023/09/19 08:46:10;;;;;;;10.93;2.70;;;;;;;18.70;59.45;100835.91;7395912;19;20027;-65
2023/09/19 08:48:44;;;;;;;10.20;2.33;;;;;;;18.79;59.30;100842.13;7392755;19;20364;-66
2023/09/19 08:51:44;;;;;;;13.15;2.47;;;;;;;18.81;58.21;100847.31;7395785;19;20014;-66
2023/09/19 08:54:32;;;;;;;9.75;2.10;;;;;;;18.71;58.33;100837.59;7395742;19;20020;-65
2023/09/19 08:57:07;;;;;;;8.65;2.28;;;;;;;18.62;59.49;100843.91;7395777;19;20019;-65
2023/09/19 08:59:40;;;;;;;11.38;2.20;;;;;;;18.72;58.64;100839.25;7397043;19;20028;-67
2023/09/19 09:02:11;;;;;;;10.45;2.35;;;;;;;18.89;58.60;100845.53;7395442;19;20029;-66
2023/09/19 09:04:43;;;;;;;10.88;2.40;;;;;;;18.84;58.33;100847.84;7393507;19;20125;-66
2023/09/19 09:07:12;;;;;;;10.10;2.00;;;;;;;18.88;58.06;100843.81;7395250;19;20081;-66
2023/09/19 09:09:43;;;;;;;8.77;2.00;;;;;;;18.85;58.24;100859.41;7392825;19;20023;-66
2023/09/19 09:12:15;;;;;;;7.70;2.03;;;;;;;18.84;58.27;100868.47;7395376;19;20010;-65
2023/09/19 09:14:50;;;;;;;14.27;2.80;;;;;;;18.91;57.76;100856.06;7395251;19;20085;-65
2023/09/19 09:17:20;;;;;;;11.10;2.33;;;;;;;18.95;58.17;100860.09;7394987;19;20114;-65
2023/09/19 09:19:48;;;;;;;10.13;2.40;;;;;;;18.94;58.36;100848.53;7392241;19;20022;-65
2023/09/19 09:22:16;;;;;;;11.30;1.95;;;;;;;18.92;57.87;100853.22;7393555;19;20021;-65
2023/09/19 09:25:03;;;;;;;11.68;2.20;;;;;;;18.99;57.77;100856.09;7393127;19;20015;-65
2023/09/19 09:27:32;;;;;;;10.63;2.40;;;;;;;18.83;57.90;100848.00;7392276;19;20630;-66
2023/09/19 09:30:00;;;;;;;8.98;2.20;;;;;;;18.82;57.75;100846.34;7394372;19;20383;-66
2023/09/19 09:32:31;;;;;;;10.32;2.33;;;;;;;18.89;57.91;100860.78;7394231;19;20026;-65
2023/09/19 09:35:00;;;;;;;7.63;2.10;;;;;;;19.02;57.54;100845.03;7394585;19;20030;-66
2023/09/19 09:37:30;;;;;;;7.50;2.13;;;;;;;19.03;57.04;100852.06;7394795;19;20043;-66
2023/09/19 09:40:36;;;;;;;8.63;1.80;;;;;;;19.14;56.53;100862.47;7394669;19;20095;-66
2023/09/19 09:42:59;;;;;;;9.57;2.28;;;;;;;19.10;55.82;100858.44;7392394;19;20649;-65
2023/09/19 09:45:37;;;;;;;9.82;1.90;;;;;;;19.22;55.74;100873.22;7394248;19;20011;-65
2023/09/19 09:48:14;;;;;;;8.52;1.85;;;;;;;19.16;55.46;100873.91;7392768;19;20110;-65
2023/09/19 09:53:20;;;;;;;7.47;2.03;;;;;;;19.32;54.54;100864.19;7393687;19;20082;-65
2023/09/19 09:56:09;;;;;;;12.07;2.35;;;;;;;19.23;53.51;100877.63;7394119;19;20023;-65
2023/09/19 09:58:40;;;;;;;8.65;1.98;;;;;;;19.18;54.93;100863.81;7391787;19;20479;-65
2023/09/19 10:01:14;;;;;;;7.60;2.10;;;;;;;19.27;54.39;100869.19;7393494;19;20496;-65
2023/09/19 10:03:49;;;;;;;9.60;2.03;;;;;;;19.42;54.90;100873.75;7392697;19;20035;-65
2023/09/19 10:11:45;;;;;;;8.20;2.05;;;;;;;19.26;55.12;100873.72;7392535;19;20019;-65
2023/09/19 10:14:16;;;;;;;11.27;2.10;;;;;;;19.18;55.61;100869.19;7393793;19;20471;-65
2023/09/19 10:16:48;;;;;;;7.28;1.95;;;;;;;19.13;55.27;100857.28;7394176;19;20038;-66
2023/09/19 10:19:24;;;;;;;11.70;2.33;;;;;;;19.10;55.25;100863.81;7391655;19;20020;-65
2023/09/19 10:21:56;;;;;;;9.90;2.22;;;;;;;19.04;55.60;100875.25;7392496;19;20382;-65
2023/09/19 10:24:26;;;;;;;8.60;2.05;;;;;;;19.07;55.44;100860.63;7392931;19;20025;-65
2023/09/19 10:26:55;;;;;;;12.85;2.60;;;;;;;19.10;55.43;100865.66;7393777;19;20039;-66
2023/09/19 10:29:25;;;;;;;13.18;2.58;;;;;;;19.18;54.99;100879.09;7391478;19;20029;-65
2023/09/19 10:31:54;;;;;;;7.85;2.20;;;;;;;19.23;55.34;100871.38;7392705;19;20505;-66
2023/09/19 10:34:25;;;;;;;8.10;2.15;;;;;;;19.41;54.57;100874.75;7392268;19;20010;-66
2023/09/19 10:36:53;;;;;;;8.32;2.38;;;;;;;19.49;54.67;100865.84;7391363;19;20046;-66
2023/09/19 10:39:21;;;;;;;10.52;2.53;;;;;;;19.44;54.44;100868.22;7390543;19;20022;-66
2023/09/19 10:41:54;;;;;;;11.57;2.50;;;;;;;19.48;54.15;100874.94;7392253;19;20070;-66
2023/09/19 10:44:25;;;;;;;;;;;;;;;19.30;54.47;100874.25;7392389;19;20033;-65
2023/09/19 10:46:53;;;;;;;9.25;2.35;;;;;;;19.37;55.03;100859.97;7392511;19;19938;-65
2023/09/19 10:49:22;;;;;;;10.38;2.60;;;;;;;19.61;54.73;100874.41;7389951;19;20018;-66
2023/09/19 10:51:55;;;;;;;10.18;2.72;;;;;;;19.69;54.10;100861.84;7392311;19;20043;-66
2023/09/19 10:54:26;;;;;;;10.65;2.17;;;;;;;19.68;54.45;100873.59;7392250;19;20014;-66
2023/09/19 10:56:56;;;;;;;10.32;2.53;;;;;;;19.70;53.89;100865.38;7392046;19;20029;-66
2023/09/19 10:59:25;;;;;;;11.43;2.60;;;;;;;19.68;53.74;100867.38;7389911;19;20416;-66
2023/09/19 11:01:58;;;;;;;12.60;2.75;;;;;;;19.72;53.64;100863.34;7391675;19;20014;-66
2023/09/19 11:04:26;;;;;;;12.70;2.78;;;;;;;19.74;54.14;100868.56;7392903;19;20022;-66
2023/09/19 11:07:11;;;;;;;10.27;2.40;;;;;;;19.84;53.68;100872.75;7392909;19;20017;-66
2023/09/19 11:09:57;;;;;;;11.68;2.38;;;;;;;19.87;52.22;100866.19;7389780;19;20027;-65
2023/09/19 11:12:31;;;;;;;11.90;2.95;;;;;;;19.67;52.86;100865.72;7391642;19;20018;-65
2023/09/19 11:14:59;;;;;;;8.73;2.50;;;;;;;19.71;52.59;100854.44;7391324;19;20025;-65
2023/09/19 11:17:33;;;;;;;9.35;2.45;;;;;;;19.85;52.78;100852.94;7391017;19;20039;-65
2023/09/19 11:22:52;;;;;;;11.27;2.47;;;;;;;19.82;53.15;100857.78;7389774;19;20505;-65
2023/09/19 11:25:33;;;;;;;10.10;2.65;;;;;;;19.94;52.14;100859.13;7390405;19;20039;-66
2023/09/19 11:28:16;;;;;;;10.48;2.75;;;;;;;20.03;52.13;100863.44;7389867;19;20018;-65
2023/09/19 11:30:48;;;;;;;11.25;2.67;;;;;;;19.94;52.66;100853.72;7389447;19;20022;-65
2023/09/19 11:33:46;;;;;;;9.77;2.40;;;;;;;19.94;52.25;100864.50;7389698;19;20023;-66
2023/09/19 11:36:15;;;;;;;9.88;2.28;;;;;;;19.77;52.47;100844.03;7390017;19;20042;-66
2023/09/19 11:38:44;;;;;;;9.98;2.15;;;;;;;19.68;52.21;100852.09;7388917;19;20795;-66
2023/09/19 11:41:28;;;;;;;9.00;2.20;;;;;;;19.83;52.11;100852.25;7393135;19;20758;-65
2023/09/19 11:44:10;;;;;;;10.10;2.47;;;;;;;19.88;51.42;100849.91;7390452;19;20014;-65
2023/09/19 11:46:50;;;;;;;10.05;2.58;;;;;;;19.88;51.77;100840.97;7388956;19;20045;-65
2023/09/19 11:49:26;;;;;;;7.80;2.38;;;;;;;20.00;52.06;100853.06;7389650;19;20035;-65
2023/09/19 11:51:54;;;;;;;6.60;1.77;;;;;;;19.94;51.03;100846.50;7398062;19;20483;-65
2023/09/19 11:54:24;;;;;;;8.32;2.67;;;;;;;19.98;51.17;100868.50;7397868;19;20051;-65
2023/09/19 11:56:53;;;;;;;11.45;2.22;;;;;;;19.99;51.04;100848.66;7396234;19;20022;-66
2023/09/19 11:59:22;;;;;;;9.45;2.25;;;;;;;20.03;50.43;100849.16;7394876;19;20007;-66
2023/09/19 12:01:58;;;;;;;8.02;2.00;;;;;;;19.96;50.97;100857.09;7395984;19;20021;-66
2023/09/19 12:04:43;;;;;;;8.07;2.30;;;;;;;19.91;50.12;100856.75;7395910;19;20010;-66
2023/09/19 12:07:16;;;;;;;8.45;2.45;;;;;;;19.95;51.40;100858.94;7397284;19;20022;-66
2023/09/19 12:09:49;;;;;;;10.32;3.08;;;;;;;20.10;50.87;100847.47;7394661;19;20018;-66